Time,TemperatureF,DewpointF,PressureIn,WindDirection,WindDirectionDegrees,WindSpeedMPH,WindSpeedGustMPH,Humidity,HourlyPrecipIn,Conditions,Clouds,dailyrainin,SoftwareType,DateUTC
2013-08-28 00:05:00,76.8,67.9,17.72,WSW,248,0.0,0.0,74,0.00,,---,0.00,VWS V14.01,2013-08-28 05:05:00,
2013-08-28 00:15:00,76.6,68.1,17.72,WSW,248,0.0,0.0,75,0.00,,---,0.00,VWS V14.01,2013-08-28 05:15:00,
2013-08-28 00:25:00,76.5,68.3,17.72,WSW,248,0.0,0.0,76,0.00,,---,0.00,VWS V14.01,2013-08-28 05:25:00,
2013-08-28 00:30:00,76.3,68.6,17.72,WSW,248,0.0,0.0,77,0.00,,---,0.00,VWS V14.01,2013-08-28 05:30:00,
2013-08-28 00:40:00,75.9,68.2,17.72,WSW,248,0.0,0.0,77,0.00,,---,0.00,VWS V14.01,2013-08-28 05:40:00,
2013-08-28 00:50:00,75.7,68.4,17.72,WSW,248,0.0,0.0,78,0.00,,---,0.00,VWS V14.01,2013-08-28 05:50:00,
2013-08-28 01:00:00,75.6,68.2,17.72,WSW,248,0.0,0.0,78,0.00,,---,0.00,VWS V14.01,2013-08-28 06:00:00,
2013-08-28 01:05:00,75.6,68.2,17.72,WSW,248,0.0,0.0,78,0.00,,---,0.00,VWS V14.01,2013-08-28 06:05:00,
2013-08-28 01:15:00,75.2,67.5,17.72,WSW,248,0.0,0.0,77,0.00,,---,0.00,VWS V14.01,2013-08-28 06:15:00,
2013-08-28 01:25:00,75.0,67.7,17.72,WSW,248,0.0,0.0,78,0.00,,---,0.00,VWS V14.01,2013-08-28 06:25:00,
2013-08-28 01:30:00,75.4,68.4,17.72,WSW,248,0.0,0.0,79,0.00,,---,0.00,VWS V14.01,2013-08-28 06:30:00,
2013-08-28 01:40:00,74.8,67.9,17.72,WSW,248,0.0,0.0,79,0.00,,---,0.00,VWS V14.01,2013-08-28 06:40:00,
2013-08-28 01:50:00,74.5,67.9,17.72,WSW,248,0.0,0.0,80,0.00,,---,0.00,VWS V14.01,2013-08-28 06:50:00,
2013-08-28 02:00:00,74.5,68.3,17.72,WSW,248,0.0,0.0,81,0.00,,---,0.00,VWS V14.01,2013-08-28 07:00:00,
2013-08-28 02:05:00,74.5,68.3,17.72,WSW,248,0.0,0.0,81,0.00,,---,0.00,VWS V14.01,2013-08-28 07:05:00,
2013-08-28 02:15:00,74.5,68.6,17.72,WSW,248,0.0,0.0,82,0.00,,---,0.00,VWS V14.01,2013-08-28 07:15:00,
2013-08-28 02:25:00,74.3,68.4,17.72,WSW,248,0.0,0.0,82,0.00,,---,0.00,VWS V14.01,2013-08-28 07:25:00,
2013-08-28 02:35:00,74.3,68.4,17.72,WSW,248,0.0,0.0,82,0.00,,---,0.00,VWS V14.01,2013-08-28 07:35:00,
2013-08-28 02:40:00,74.1,68.3,17.72,WSW,248,0.0,0.0,82,0.00,,---,0.00,VWS V14.01,2013-08-28 07:40:00,
2013-08-28 02:50:00,74.1,67.9,17.72,WSW,248,0.0,0.0,81,0.00,,---,0.00,VWS V14.01,2013-08-28 07:50:00,
2013-08-28 03:00:00,73.9,67.8,17.72,WSW,248,0.0,0.0,81,0.00,,---,0.00,VWS V14.01,2013-08-28 08:00:00,
2013-08-28 03:10:00,73.6,67.0,17.72,WSW,248,0.0,0.0,80,0.00,,---,0.00,VWS V14.01,2013-08-28 08:10:00,
2013-08-28 03:15:00,73.8,67.2,17.72,WSW,248,0.0,0.0,80,0.00,,---,0.00,VWS V14.01,2013-08-28 08:15:00,
2013-08-28 03:25:00,73.8,67.6,17.72,WSW,248,0.0,0.0,81,0.00,,---,0.00,VWS V14.01,2013-08-28 08:25:00,
2013-08-28 03:35:00,73.4,67.2,17.72,WSW,248,0.0,0.0,81,0.00,,---,0.00,VWS V14.01,2013-08-28 08:35:00,
2013-08-28 03:40:00,73.4,67.2,17.72,WSW,248,0.0,0.0,81,0.00,,---,0.00,VWS V14.01,2013-08-28 08:40:00,
2013-08-28 03:45:00,73.2,67.1,17.72,WSW,248,0.0,0.0,81,0.00,,---,0.00,VWS V14.01,2013-08-28 08:45:00,
2013-08-28 03:55:00,73.2,67.1,17.72,WSW,248,0.0,0.0,81,0.00,,---,0.00,VWS V14.01,2013-08-28 08:55:00,
2013-08-28 04:00:00,73.0,66.9,17.72,WSW,248,0.0,0.0,81,0.00,,---,0.00,VWS V14.01,2013-08-28 09:00:00,
2013-08-28 04:10:00,72.9,66.7,17.72,WSW,248,0.0,0.0,81,0.00,,---,0.00,VWS V14.01,2013-08-28 09:10:00,
2013-08-28 04:20:00,72.7,66.5,17.72,WSW,248,0.0,0.0,81,0.00,,---,0.00,VWS V14.01,2013-08-28 09:20:00,
2013-08-28 04:30:00,72.5,66.7,17.72,WSW,248,0.0,0.0,82,0.00,,---,0.00,VWS V14.01,2013-08-28 09:30:00,
2013-08-28 04:35:00,72.5,66.7,17.72,WSW,248,0.0,0.0,82,0.00,,---,0.00,VWS V14.01,2013-08-28 09:35:00,
2013-08-28 04:40:00,72.5,66.7,17.72,WSW,248,0.0,0.0,82,0.00,,---,0.00,VWS V14.01,2013-08-28 09:40:00,
2013-08-28 04:45:00,72.5,67.1,17.72,WSW,248,0.0,0.0,83,0.00,,---,0.00,VWS V14.01,2013-08-28 09:45:00,
2013-08-28 04:55:00,72.5,67.4,17.72,WSW,248,0.0,0.0,84,0.00,,---,0.00,VWS V14.01,2013-08-28 09:55:00,
2013-08-28 05:00:00,72.3,67.2,17.72,WSW,248,0.0,0.0,84,0.00,,---,0.00,VWS V14.01,2013-08-28 10:00:00,
2013-08-28 05:10:00,72.3,67.2,17.72,WSW,248,0.0,0.0,84,0.00,,---,0.00,VWS V14.01,2013-08-28 10:10:00,
2013-08-28 05:20:00,72.3,67.2,17.72,WSW,248,0.0,0.0,84,0.00,,---,0.00,VWS V14.01,2013-08-28 10:20:00,
2013-08-28 05:25:00,72.3,67.2,17.72,WSW,248,0.0,0.0,84,0.00,,---,0.00,VWS V14.01,2013-08-28 10:25:00,
2013-08-28 05:30:00,72.1,67.0,17.72,WSW,248,0.0,0.0,84,0.00,,---,0.00,VWS V14.01,2013-08-28 10:30:00,
2013-08-28 05:40:00,72.1,66.7,17.72,WSW,248,0.0,0.0,83,0.00,,---,0.00,VWS V14.01,2013-08-28 10:40:00,
2013-08-28 05:45:00,72.1,66.7,17.72,WSW,248,0.0,0.0,83,0.00,,---,0.00,VWS V14.01,2013-08-28 10:45:00,
2013-08-28 05:55:00,71.8,66.0,17.72,WSW,248,0.0,0.0,82,0.00,,---,0.00,VWS V14.01,2013-08-28 10:55:00,
2013-08-28 06:05:00,71.4,65.6,17.72,WSW,248,0.0,0.0,82,0.00,,---,0.00,VWS V14.01,2013-08-28 11:05:00,
2013-08-28 06:15:00,71.2,65.5,17.72,WSW,248,0.0,0.0,82,0.00,,---,0.00,VWS V14.01,2013-08-28 11:15:00,
2013-08-28 06:20:00,71.2,65.5,17.72,WSW,248,0.0,0.0,82,0.00,,---,0.00,VWS V14.01,2013-08-28 11:20:00,
2013-08-28 06:30:00,71.1,65.6,17.72,WSW,248,0.0,0.0,83,0.00,,---,0.00,VWS V14.01,2013-08-28 11:30:00,
2013-08-28 06:35:00,71.1,65.6,17.72,WSW,248,0.0,0.0,83,0.00,,---,0.00,VWS V14.01,2013-08-28 11:35:00,
2013-08-28 06:40:00,71.1,65.6,17.72,WSW,248,0.0,0.0,83,0.00,,---,0.00,VWS V14.01,2013-08-28 11:40:00,
2013-08-28 06:50:00,71.1,65.6,17.72,WSW,248,0.0,0.0,83,0.00,,---,0.00,VWS V14.01,2013-08-28 11:50:00,
2013-08-28 06:55:00,71.1,65.6,17.72,WSW,248,0.0,0.0,83,0.00,,---,0.00,VWS V14.01,2013-08-28 11:55:00,
2013-08-28 07:05:00,71.2,66.2,17.72,WSW,249,0.0,0.0,84,0.00,,---,0.00,VWS V14.01,2013-08-28 12:05:00,
2013-08-28 07:10:00,71.2,66.5,17.72,WSW,249,0.0,0.0,85,0.00,,---,0.00,VWS V14.01,2013-08-28 12:10:00,
2013-08-28 07:20:00,71.6,67.2,17.72,WSW,249,0.0,0.0,86,0.00,,---,0.00,VWS V14.01,2013-08-28 12:20:00,
2013-08-28 07:25:00,71.6,67.2,17.72,WSW,249,0.0,0.0,86,0.00,,---,0.00,VWS V14.01,2013-08-28 12:25:00,
2013-08-28 07:30:00,71.8,67.4,17.72,WSW,249,0.0,0.0,86,0.00,,---,0.00,VWS V14.01,2013-08-28 12:30:00,
2013-08-28 07:40:00,72.0,67.9,17.72,SSE,166,0.0,0.0,87,0.00,,---,0.00,VWS V14.01,2013-08-28 12:40:00,
2013-08-28 07:50:00,72.3,68.2,17.72,SSE,166,0.0,0.0,87,0.00,,---,0.00,VWS V14.01,2013-08-28 12:50:00,
2013-08-28 08:00:00,72.5,68.8,17.72,SSE,166,0.0,0.0,88,0.00,,---,0.00,VWS V14.01,2013-08-28 13:00:00,
2013-08-28 08:05:00,72.7,68.9,17.72,SSE,166,0.0,0.0,88,0.00,,---,0.00,VWS V14.01,2013-08-28 13:05:00,
2013-08-28 08:10:00,72.7,68.9,17.72,SSE,166,0.0,0.0,88,0.00,,---,0.00,VWS V14.01,2013-08-28 13:10:00,
2013-08-28 08:15:00,72.9,69.1,17.72,SSE,166,0.0,0.0,88,0.00,,---,0.00,VWS V14.01,2013-08-28 13:15:00,
2013-08-28 08:25:00,72.9,69.1,17.72,SSE,166,0.0,0.0,88,0.00,,---,0.00,VWS V14.01,2013-08-28 13:25:00,
2013-08-28 08:35:00,73.2,69.8,17.72,SSE,166,0.0,0.0,89,0.00,,---,0.00,VWS V14.01,2013-08-28 13:35:00,
2013-08-28 08:40:00,73.4,69.6,17.72,SSE,166,0.0,0.0,88,0.00,,---,0.00,VWS V14.01,2013-08-28 13:40:00,
2013-08-28 08:50:00,73.9,70.5,17.72,SE,128,0.0,0.0,89,0.00,,---,0.00,VWS V14.01,2013-08-28 13:50:00,
2013-08-28 08:55:00,74.1,70.7,17.72,South,169,0.0,0.0,89,0.00,,---,0.00,VWS V14.01,2013-08-28 13:55:00,
2013-08-28 09:00:00,74.7,71.2,17.72,East,96,0.0,0.0,89,0.00,,---,0.00,VWS V14.01,2013-08-28 14:00:00,
2013-08-28 09:10:00,75.2,71.7,17.72,SSW,196,0.0,0.0,89,0.00,,---,0.00,VWS V14.01,2013-08-28 14:10:00,
2013-08-28 09:20:00,75.4,71.9,17.72,East,98,0.0,0.0,89,0.00,,---,0.00,VWS V14.01,2013-08-28 14:20:00,
2013-08-28 09:25:00,75.6,72.1,17.72,SSE,153,2.2,2.2,89,0.00,,---,0.00,VWS V14.01,2013-08-28 14:25:00,
2013-08-28 09:35:00,75.9,72.1,17.72,West,276,0.0,0.0,88,0.00,,---,0.00,VWS V14.01,2013-08-28 14:35:00,
2013-08-28 09:45:00,75.7,71.6,17.72,West,271,0.0,0.0,87,0.00,,---,0.00,VWS V14.01,2013-08-28 14:45:00,
2013-08-28 09:50:00,75.7,71.6,17.72,South,180,0.0,0.0,87,0.00,,---,0.00,VWS V14.01,2013-08-28 14:50:00,
2013-08-28 10:00:00,75.9,71.8,17.72,SE,145,0.0,0.0,87,0.00,,---,0.00,VWS V14.01,2013-08-28 15:00:00,
2013-08-28 10:10:00,76.5,72.7,17.72,ESE,119,0.0,0.0,88,0.00,,---,0.00,VWS V14.01,2013-08-28 15:10:00,
2013-08-28 10:20:00,77.2,73.3,17.72,ESE,115,3.1,3.1,88,0.00,,---,0.00,VWS V14.01,2013-08-28 15:20:00,
2013-08-28 10:25:00,77.5,73.4,17.72,SE,142,2.7,2.7,87,0.00,,---,0.00,VWS V14.01,2013-08-28 15:25:00,
2013-08-28 10:35:00,78.6,74.4,17.72,ESE,110,2.2,2.2,87,0.00,,---,0.00,VWS V14.01,2013-08-28 15:35:00,
2013-08-28 10:45:00,79.0,73.7,17.72,SSE,148,3.1,3.1,84,0.00,,---,0.00,VWS V14.01,2013-08-28 15:45:00,
2013-08-28 10:55:00,79.7,73.7,17.72,SE,142,3.6,3.6,82,0.00,,---,0.00,VWS V14.01,2013-08-28 15:55:00,
2013-08-28 11:05:00,80.2,73.1,17.72,SSE,158,3.6,3.6,79,0.00,,---,0.00,VWS V14.01,2013-08-28 16:05:00,
2013-08-28 11:15:00,80.2,71.2,17.72,SE,131,0.0,0.0,74,0.00,,---,0.00,VWS V14.01,2013-08-28 16:15:00,
2013-08-28 11:20:00,80.4,70.6,17.72,SE,125,2.7,2.7,72,0.00,,---,0.00,VWS V14.01,2013-08-28 16:20:00,
2013-08-28 11:30:00,81.5,69.5,17.72,East,101,3.1,3.1,67,0.00,,---,0.00,VWS V14.01,2013-08-28 16:30:00,
2013-08-28 11:40:00,82.4,69.0,17.72,ESE,110,0.0,0.0,64,0.00,,---,0.00,VWS V14.01,2013-08-28 16:40:00,
2013-08-28 11:45:00,81.9,66.1,17.72,East,89,3.6,3.6,59,0.00,,---,0.00,VWS V14.01,2013-08-28 16:45:00,
2013-08-28 19:15:00,79.7,61.6,17.72,NE,40,0.0,0.0,54,0.00,,---,0.00,VWS V14.01,2013-08-29 00:15:00,
2013-08-28 19:45:00,78.4,63.4,17.72,NE,39,0.0,0.0,60,0.00,,---,0.00,VWS V14.01,2013-08-29 00:45:00,
2013-08-28 19:50:00,78.6,63.6,17.72,NE,40,0.0,0.0,60,0.00,,---,0.00,VWS V14.01,2013-08-29 00:50:00,
2013-08-28 19:55:00,78.6,63.6,17.72,NE,39,0.0,0.0,60,0.00,,---,0.00,VWS V14.01,2013-08-29 00:55:00,
2013-08-28 20:05:00,78.1,63.1,17.72,NE,40,0.0,0.0,60,0.00,,---,0.00,VWS V14.01,2013-08-29 01:05:00,
2013-08-28 20:15:00,77.5,64.0,17.72,NE,39,0.0,0.0,63,0.00,,---,0.00,VWS V14.01,2013-08-29 01:15:00,
2013-08-28 20:25:00,77.0,64.3,17.72,NE,40,0.0,0.0,65,0.00,,---,0.00,VWS V14.01,2013-08-29 01:25:00,
2013-08-28 20:35:00,76.5,62.9,17.72,NE,40,0.0,0.0,63,0.00,,---,0.00,VWS V14.01,2013-08-29 01:35:00,
2013-08-28 20:45:00,76.3,63.7,17.72,NE,40,0.0,0.0,65,0.00,,---,0.00,VWS V14.01,2013-08-29 01:45:00,
2013-08-28 20:50:00,75.9,63.8,17.72,NE,39,0.0,0.0,66,0.00,,---,0.00,VWS V14.01,2013-08-29 01:50:00,
2013-08-28 20:55:00,75.7,63.6,17.72,NE,40,0.0,0.0,66,0.00,,---,0.00,VWS V14.01,2013-08-29 01:55:00,
2013-08-28 21:00:00,75.7,63.6,17.72,NE,39,0.0,0.0,66,0.00,,---,0.00,VWS V14.01,2013-08-29 02:00:00,
2013-08-28 21:10:00,75.2,63.1,17.72,NE,39,0.0,0.0,66,0.00,,---,0.00,VWS V14.01,2013-08-29 02:10:00,
2013-08-28 21:15:00,75.2,63.1,17.72,NE,40,0.0,0.0,66,0.00,,---,0.00,VWS V14.01,2013-08-29 02:15:00,
2013-08-28 21:25:00,75.0,63.8,17.72,NE,39,0.0,0.0,68,0.00,,---,0.00,VWS V14.01,2013-08-29 02:25:00,
2013-08-28 21:30:00,74.7,63.8,17.72,NE,39,0.0,0.0,69,0.00,,---,0.00,VWS V14.01,2013-08-29 02:30:00,
2013-08-28 21:35:00,74.5,63.2,17.72,NE,40,0.0,0.0,68,0.00,,---,0.00,VWS V14.01,2013-08-29 02:35:00,
2013-08-28 21:40:00,74.5,63.2,17.72,NE,40,0.0,0.0,68,0.00,,---,0.00,VWS V14.01,2013-08-29 02:40:00,
2013-08-28 21:45:00,74.3,63.1,17.72,NE,39,0.0,0.0,68,0.00,,---,0.00,VWS V14.01,2013-08-29 02:45:00,
2013-08-28 21:55:00,74.1,62.9,17.72,NE,40,0.0,0.0,68,0.00,,---,0.00,VWS V14.01,2013-08-29 02:55:00,
2013-08-28 22:00:00,73.9,62.7,17.72,NE,40,0.0,0.0,68,0.00,,---,0.00,VWS V14.01,2013-08-29 03:00:00,
2013-08-28 22:10:00,73.9,62.7,17.72,NE,40,0.0,0.0,68,0.00,,---,0.00,VWS V14.01,2013-08-29 03:10:00,
2013-08-28 22:20:00,73.8,62.5,17.72,NE,39,0.0,0.0,68,0.00,,---,0.00,VWS V14.01,2013-08-29 03:20:00,
2013-08-28 22:30:00,73.4,63.0,17.72,NE,39,0.0,0.0,70,0.00,,---,0.00,VWS V14.01,2013-08-29 03:30:00,
2013-08-28 22:35:00,73.2,63.3,17.72,NE,39,0.0,0.0,71,0.00,,---,0.00,VWS V14.01,2013-08-29 03:35:00,
2013-08-28 22:45:00,72.9,63.3,17.72,NE,39,0.0,0.0,72,0.00,,---,0.00,VWS V14.01,2013-08-29 03:45:00,
2013-08-28 22:55:00,72.3,63.2,17.72,NE,39,0.0,0.0,73,0.00,,---,0.00,VWS V14.01,2013-08-29 03:55:00,
2013-08-28 23:00:00,72.3,63.2,17.72,NE,40,0.0,0.0,73,0.00,,---,0.00,VWS V14.01,2013-08-29 04:00:00,
2013-08-28 23:05:00,72.5,63.8,17.72,NE,40,0.0,0.0,74,0.00,,---,0.00,VWS V14.01,2013-08-29 04:05:00,
2013-08-28 23:10:00,72.5,64.1,17.72,NE,40,0.0,0.0,75,0.00,,---,0.00,VWS V14.01,2013-08-29 04:10:00,
2013-08-28 23:15:00,72.3,63.6,17.72,NE,40,0.0,0.0,74,0.00,,---,0.00,VWS V14.01,2013-08-29 04:15:00,
2013-08-28 23:20:00,72.5,64.1,17.72,NE,39,0.0,0.0,75,0.00,,---,0.00,VWS V14.01,2013-08-29 04:20:00,
2013-08-28 23:25:00,72.3,63.6,17.72,NE,39,0.0,0.0,74,0.00,,---,0.00,VWS V14.01,2013-08-29 04:25:00,
2013-08-28 23:30:00,72.1,63.4,17.72,NE,39,0.0,0.0,74,0.00,,---,0.00,VWS V14.01,2013-08-29 04:30:00,
2013-08-28 23:35:00,72.1,63.0,17.72,NE,40,0.0,0.0,73,0.00,,---,0.00,VWS V14.01,2013-08-29 04:35:00,
2013-08-28 23:40:00,72.1,63.4,17.72,NE,39,0.0,0.0,74,0.00,,---,0.00,VWS V14.01,2013-08-29 04:40:00,
2013-08-28 23:45:00,72.1,63.8,17.72,NE,40,0.0,0.0,75,0.00,,---,0.00,VWS V14.01,2013-08-29 04:45:00,
2013-08-28 23:55:00,72.3,64.7,17.72,NE,40,0.0,0.0,77,0.00,,---,0.00,VWS V14.01,2013-08-29 04:55:00,